Time;durP1;ratioP1;P1;durP2;ratioP2;P2;SDS_P1;SDS_P2;PMS_P1;PMS_P2;Temp;Humidity;BMP_temperature;BMP_pressure;BME280_temperature;BME280_humidity;BME280_pressure;Samples;Min_cycle;Max_cycle;Signal;HPM_P1;HPM_P2
2022/02/19 00:02:07;;;;;;;4.45;2.40;;;;;;;;;;4981865;28;20117;-72
2022/02/19 00:04:33;;;;;;;6.72;2.75;;;;;;;;;;4985064;28;20093;-71
2022/02/19 00:06:59;;;;;;;5.00;2.90;;;;;;;;;;4984155;28;20054;-72
2022/02/19 00:09:25;;;;;;;7.65;3.03;;;;;;;;;;4984671;28;20514;-73
2022/02/19 00:11:51;;;;;;;7.80;3.05;;;;;;;;;;4988279;28;20022;-72
2022/02/19 00:14:17;;;;;;;7.85;3.13;;;;;;;;;;4981747;28;20034;-72
2022/02/19 00:16:43;;;;;;;6.57;2.53;;;;;;;;;;4980276;28;20095;-72
2022/02/19 00:19:10;;;;;;;6.80;2.75;;;;;;;;;;4980183;28;21796;-72
2022/02/19 00:21:36;;;;;;;6.70;2.42;;;;;;;;;;4978250;28;20034;-72
2022/02/19 00:24:02;;;;;;;5.57;3.08;;;;;;;;;;4978901;28;20105;-71
2022/02/19 00:26:28;;;;;;;8.60;3.08;;;;;;;;;;4981109;28;20049;-72
2022/02/19 00:28:54;;;;;;;6.20;2.83;;;;;;;;;;4981062;28;20404;-72
2022/02/19 00:31:20;;;;;;;5.13;2.25;;;;;;;;;;4989272;28;20049;-72
2022/02/19 00:33:47;;;;;;;5.13;2.63;;;;;;;;;;4982145;28;20433;-71
2022/02/19 00:36:13;;;;;;;4.18;2.65;;;;;;;;;;4981371;28;20089;-71
2022/02/19 00:38:39;;;;;;;9.88;3.30;;;;;;;;;;4986890;28;20034;-72
2022/02/19 00:41:05;;;;;;;6.20;3.10;;;;;;;;;;4978407;28;20536;-73
2022/02/19 00:43:31;;;;;;;4.53;2.90;;;;;;;;;;4981006;28;20034;-72
2022/02/19 00:45:57;;;;;;;8.40;2.90;;;;;;;;;;4983490;28;20038;-71
2022/02/19 00:48:23;;;;;;;3.40;1.92;;;;;;;;;;4984953;28;20378;-71
2022/02/19 00:50:49;;;;;;;3.92;2.30;;;;;;;;;;4978706;28;20105;-72
2022/02/19 00:53:16;;;;;;;4.75;2.47;;;;;;;;;;4975026;28;20050;-72
2022/02/19 00:55:42;;;;;;;5.05;1.85;;;;;;;;;;4977737;28;20023;-71
2022/02/19 00:58:09;;;;;;;3.92;2.17;;;;;;;;;;4977010;28;20442;-72
2022/02/19 01:00:35;;;;;;;7.47;2.40;;;;;;;;;;4978726;28;20034;-72
2022/02/19 01:03:02;;;;;;;7.72;2.67;;;;;;;;;;4980770;28;20043;-71
2022/02/19 01:05:28;;;;;;;3.88;2.20;;;;;;;;;;4980153;28;20042;-71
2022/02/19 01:07:54;;;;;;;4.25;2.10;;;;;;;;;;4982758;28;20525;-72
2022/02/19 01:10:20;;;;;;;3.50;1.83;;;;;;;;;;4982661;28;20130;-72
2022/02/19 01:12:46;;;;;;;4.38;2.33;;;;;;;;;;4976730;28;20030;-72
2022/02/19 01:15:12;;;;;;;5.15;1.88;;;;;;;;;;4978327;28;20026;-71
2022/02/19 01:17:39;;;;;;;3.67;2.55;;;;;;;;;;4981334;28;20042;-72
2022/02/19 01:20:08;;;;;;;1.98;1.75;;;;;;;;;;4980528;28;20105;-72
2022/02/19 01:22:34;;;;;;;2.67;1.70;;;;;;;;;;4990920;28;20034;-71
2022/02/19 01:25:00;;;;;;;4.65;2.25;;;;;;;;;;4990867;28;20026;-71
2022/02/19 01:27:26;;;;;;;4.60;1.60;;;;;;;;;;4983933;28;20049;-72
2022/02/19 01:29:53;;;;;;;5.05;2.38;;;;;;;;;;4997058;28;20388;-72
2022/02/19 01:32:19;;;;;;;3.15;1.90;;;;;;;;;;4988255;28;20052;-72
2022/02/19 01:34:45;;;;;;;3.25;2.22;;;;;;;;;;4984901;28;20039;-72
2022/02/19 01:37:11;;;;;;;5.40;2.25;;;;;;;;;;4986255;28;20065;-72
2022/02/19 01:39:37;;;;;;;2.92;2.20;;;;;;;;;;4991399;28;20041;-72
2022/02/19 01:42:04;;;;;;;6.18;2.17;;;;;;;;;;4981535;28;20504;-72
2022/02/19 01:44:35;;;;;;;4.07;2.40;;;;;;;;;;4983670;28;20496;-72
2022/02/19 01:47:02;;;;;;;5.53;2.15;;;;;;;;;;4987674;28;20373;-73
2022/02/19 01:49:28;;;;;;;5.70;2.55;;;;;;;;;;4990244;28;20040;-72
2022/02/19 01:51:54;;;;;;;6.05;3.30;;;;;;;;;;4983465;28;20031;-72
2022/02/19 01:54:20;;;;;;;7.45;2.55;;;;;;;;;;4985638;28;20114;-72
2022/02/19 01:56:46;;;;;;;8.18;2.35;;;;;;;;;;4983824;28;20034;-72
2022/02/19 01:59:13;;;;;;;4.15;2.63;;;;;;;;;;4981598;28;20027;-71
2022/02/19 02:01:39;;;;;;;7.82;2.25;;;;;;;;;;4990181;28;20046;-72
2022/02/19 02:04:05;;;;;;;9.13;2.60;;;;;;;;;;4984755;28;20034;-72
2022/02/19 02:06:31;;;;;;;9.07;2.70;;;;;;;;;;4991584;28;20028;-72
2022/02/19 02:08:59;;;;;;;5.65;2.42;;;;;;;;;;4981577;28;20045;-71
2022/02/19 02:11:25;;;;;;;7.13;2.33;;;;;;;;;;4999495;28;20026;-72
2022/02/19 02:13:51;;;;;;;6.53;2.50;;;;;;;;;;4979664;28;20034;-72
2022/02/19 02:16:17;;;;;;;6.30;3.05;;;;;;;;;;4990774;28;20050;-71
2022/02/19 02:18:44;;;;;;;7.95;2.67;;;;;;;;;;4982256;28;20038;-72
2022/02/19 02:21:10;;;;;;;5.72;3.10;;;;;;;;;;4989608;28;20026;-72
2022/02/19 02:23:36;;;;;;;8.23;2.58;;;;;;;;;;4995472;28;20030;-72
2022/02/19 02:26:03;;;;;;;4.03;2.65;;;;;;;;;;4986540;28;20044;-72
2022/02/19 02:28:29;;;;;;;6.88;2.88;;;;;;;;;;4978639;28;20026;-72
2022/02/19 02:30:55;;;;;;;6.95;2.67;;;;;;;;;;4984606;28;20046;-72
2022/02/19 02:33:22;;;;;;;6.38;3.00;;;;;;;;;;4984193;28;20034;-72
2022/02/19 02:35:49;;;;;;;9.13;2.83;;;;;;;;;;4977399;28;20034;-71
2022/02/19 02:38:15;;;;;;;5.50;3.88;;;;;;;;;;4986035;28;20553;-72
2022/02/19 02:40:42;;;;;;;3.33;2.60;;;;;;;;;;4980771;28;20031;-72
2022/02/19 02:43:08;;;;;;;4.97;2.90;;;;;;;;;;4986524;28;20226;-72
2022/02/19 02:45:34;;;;;;;4.50;2.78;;;;;;;;;;4987594;28;20030;-72
2022/02/19 02:48:01;;;;;;;4.18;2.25;;;;;;;;;;4988653;28;20028;-72
2022/02/19 02:50:27;;;;;;;4.78;2.20;;;;;;;;;;4980557;28;20042;-73
2022/02/19 02:52:53;;;;;;;4.05;2.28;;;;;;;;;;4984790;28;20023;-72
2022/02/19 02:55:19;;;;;;;7.05;2.30;;;;;;;;;;4983473;28;20105;-72
2022/02/19 02:57:45;;;;;;;5.07;2.58;;;;;;;;;;4981814;28;21044;-72
2022/02/19 03:00:12;;;;;;;4.32;2.25;;;;;;;;;;4987432;28;20050;-72
2022/02/19 03:02:38;;;;;;;4.07;2.35;;;;;;;;;;4986419;28;20023;-72
2022/02/19 03:05:05;;;;;;;5.28;2.28;;;;;;;;;;4997460;28;20065;-72
2022/02/19 03:07:32;;;;;;;3.72;2.55;;;;;;;;;;4982980;28;20089;-72
2022/02/19 03:09:58;;;;;;;5.70;2.10;;;;;;;;;;4986006;28;20113;-72
2022/02/19 03:12:25;;;;;;;5.25;1.80;;;;;;;;;;4984453;28;20045;-72
2022/02/19 03:14:51;;;;;;;4.50;2.28;;;;;;;;;;4985272;28;20061;-72
2022/02/19 03:17:17;;;;;;;3.55;2.10;;;;;;;;;;4985697;28;20501;-72
2022/02/19 03:19:45;;;;;;;7.90;2.92;;;;;;;;;;4983712;28;20031;-72
2022/02/19 03:22:12;;;;;;;4.05;2.28;;;;;;;;;;4983881;28;20018;-72
2022/02/19 03:24:38;;;;;;;6.97;2.28;;;;;;;;;;4990534;28;20034;-72
2022/02/19 03:27:05;;;;;;;4.47;2.90;;;;;;;;;;4983121;28;20105;-72
2022/02/19 03:29:31;;;;;;;6.70;2.45;;;;;;;;;;4987519;28;20031;-73
2022/02/19 03:31:57;;;;;;;6.43;2.10;;;;;;;;;;4987353;28;20089;-72
2022/02/19 03:34:24;;;;;;;3.28;1.90;;;;;;;;;;4997376;28;20401;-72
2022/02/19 03:36:50;;;;;;;5.55;2.58;;;;;;;;;;4978368;28;20527;-71
2022/02/19 03:39:16;;;;;;;4.32;2.33;;;;;;;;;;4985089;28;20034;-72
2022/02/19 03:41:42;;;;;;;6.03;2.50;;;;;;;;;;4985261;28;20042;-71
2022/02/19 03:44:08;;;;;;;3.72;2.70;;;;;;;;;;4986175;28;20385;-72
2022/02/19 03:46:37;;;;;;;5.25;2.10;;;;;;;;;;4993851;28;20027;-72
2022/02/19 03:49:03;;;;;;;2.20;2.00;;;;;;;;;;4980595;28;20018;-72
2022/02/19 03:51:30;;;;;;;5.70;2.40;;;;;;;;;;4985400;28;20034;-72
2022/02/19 03:53:56;;;;;;;6.25;2.60;;;;;;;;;;4991078;28;20025;-72
2022/02/19 03:56:22;;;;;;;5.15;2.13;;;;;;;;;;4980746;28;20029;-72
2022/02/19 03:58:48;;;;;;;5.40;1.98;;;;;;;;;;4980148;28;20026;-72
2022/02/19 04:01:14;;;;;;;6.82;2.00;;;;;;;;;;4984619;28;20041;-72
2022/02/19 04:03:41;;;;;;;4.68;2.53;;;;;;;;;;4982869;28;20042;-72
2022/02/19 04:06:07;;;;;;;3.67;2.00;;;;;;;;;;4984669;28;20026;-72
2022/02/19 04:08:33;;;;;;;4.45;2.10;;;;;;;;;;4982734;28;20423;-73
2022/02/19 04:10:59;;;;;;;4.70;2.17;;;;;;;;;;4985890;28;20058;-72
2022/02/19 04:13:25;;;;;;;3.25;1.80;;;;;;;;;;4981552;28;20027;-72
2022/02/19 04:15:51;;;;;;;2.15;1.80;;;;;;;;;;4977544;28;20038;-72
2022/02/19 04:18:17;;;;;;;7.57;2.03;;;;;;;;;;4988726;28;20109;-69
2022/02/19 04:20:43;;;;;;;10.38;2.35;;;;;;;;;;4982415;28;20018;-71
2022/02/19 04:23:09;;;;;;;2.85;2.25;;;;;;;;;;4985105;28;20537;-72
2022/02/19 04:25:35;;;;;;;7.82;2.22;;;;;;;;;;4981781;28;20496;-72
2022/02/19 04:28:05;;;;;;;3.55;1.80;;;;;;;;;;4981325;28;20031;-72
2022/02/19 04:30:31;;;;;;;8.95;3.53;;;;;;;;;;4985996;28;20033;-73
2022/02/19 04:32:58;;;;;;;5.13;2.40;;;;;;;;;;4996433;28;20563;-72
2022/02/19 04:35:27;;;;;;;3.13;2.00;;;;;;;;;;4981343;28;20061;-72
2022/02/19 04:37:53;;;;;;;3.58;1.88;;;;;;;;;;4993448;28;20393;-73
2022/02/19 04:40:20;;;;;;;5.63;3.00;;;;;;;;;;4981046;28;20117;-72
2022/02/19 04:42:46;;;;;;;3.47;2.13;;;;;;;;;;4982126;28;20468;-73
2022/02/19 04:45:12;;;;;;;3.45;1.92;;;;;;;;;;4978465;28;20037;-73
2022/02/19 04:47:39;;;;;;;5.15;2.08;;;;;;;;;;4981822;28;20389;-73
2022/02/19 04:50:05;;;;;;;3.25;2.10;;;;;;;;;;4985819;28;20041;-73
2022/02/19 04:52:32;;;;;;;8.60;2.30;;;;;;;;;;4984597;28;20034;-72
2022/02/19 04:54:58;;;;;;;5.60;3.25;;;;;;;;;;4985747;28;20503;-72
2022/02/19 04:57:24;;;;;;;2.85;1.98;;;;;;;;;;4994932;28;20026;-72
2022/02/19 04:59:51;;;;;;;1.92;1.75;;;;;;;;;;4989761;28;20033;-73
2022/02/19 05:02:17;;;;;;;5.72;3.00;;;;;;;;;;4993308;28;20034;-72
2022/02/19 05:04:43;;;;;;;3.08;2.50;;;;;;;;;;4992364;28;20524;-73
2022/02/19 05:07:09;;;;;;;6.40;2.42;;;;;;;;;;4992229;28;20026;-72
2022/02/19 05:09:36;;;;;;;3.38;1.83;;;;;;;;;;5001537;28;20026;-72
2022/02/19 05:12:02;;;;;;;5.80;2.80;;;;;;;;;;4994411;28;20027;-73
2022/02/19 05:14:29;;;;;;;6.18;2.63;;;;;;;;;;4981875;28;20027;-72
2022/02/19 05:16:55;;;;;;;2.90;2.28;;;;;;;;;;5002207;28;20471;-72
2022/02/19 05:19:21;;;;;;;7.18;2.30;;;;;;;;;;4997312;28;20030;-71
2022/02/19 05:21:47;;;;;;;4.60;2.20;;;;;;;;;;5005106;28;20030;-72
2022/02/19 05:24:13;;;;;;;3.08;1.98;;;;;;;;;;4980173;28;20031;-72
2022/02/19 05:26:39;;;;;;;5.45;2.40;;;;;;;;;;4987624;28;20113;-72
2022/02/19 05:29:05;;;;;;;4.88;2.83;;;;;;;;;;4988708;28;20039;-72
2022/02/19 05:31:32;;;;;;;6.78;2.70;;;;;;;;;;4988592;28;20163;-72
2022/02/19 05:33:58;;;;;;;5.25;2.20;;;;;;;;;;4988426;28;20030;-72
2022/02/19 05:36:24;;;;;;;7.07;2.10;;;;;;;;;;4991362;28;20026;-72
2022/02/19 05:38:50;;;;;;;8.98;2.35;;;;;;;;;;4978960;28;20061;-72
2022/02/19 05:41:16;;;;;;;5.70;2.33;;;;;;;;;;4982337;28;20558;-72
2022/02/19 05:43:42;;;;;;;8.00;2.50;;;;;;;;;;4982055;28;20038;-72
2022/02/19 05:46:08;;;;;;;5.55;1.88;;;;;;;;;;4984645;28;20485;-72
2022/02/19 05:48:34;;;;;;;5.82;2.10;;;;;;;;;;4989261;28;20053;-72
2022/02/19 05:51:00;;;;;;;3.53;2.30;;;;;;;;;;4984811;28;20035;-72
2022/02/19 05:53:26;;;;;;;6.88;2.08;;;;;;;;;;4982884;28;20045;-72
2022/02/19 05:55:53;;;;;;;5.35;1.88;;;;;;;;;;4984477;28;20037;-72
2022/02/19 05:58:19;;;;;;;5.55;2.40;;;;;;;;;;4992775;28;20035;-73
2022/02/19 06:00:45;;;;;;;3.03;2.60;;;;;;;;;;4990838;28;21520;-72
2022/02/19 06:03:12;;;;;;;5.00;2.00;;;;;;;;;;4985102;28;20512;-71
2022/02/19 06:05:38;;;;;;;4.57;2.22;;;;;;;;;;4983584;28;20034;-72
2022/02/19 06:08:04;;;;;;;3.38;1.83;;;;;;;;;;4980002;28;20038;-71
2022/02/19 06:10:30;;;;;;;7.20;2.17;;;;;;;;;;4996787;28;20063;-72
2022/02/19 06:12:57;;;;;;;5.25;2.17;;;;;;;;;;4983363;28;20465;-72
2022/02/19 06:15:23;;;;;;;5.60;2.00;;;;;;;;;;4983802;28;20041;-72
2022/02/19 06:17:49;;;;;;;3.10;1.70;;;;;;;;;;4986285;28;20098;-71
2022/02/19 06:20:15;;;;;;;9.68;2.65;;;;;;;;;;4985873;28;20433;-72
2022/02/19 06:22:41;;;;;;;5.38;1.90;;;;;;;;;;4989456;28;20026;-71
2022/02/19 06:25:07;;;;;;;5.03;2.40;;;;;;;;;;4986473;28;20045;-71
2022/02/19 06:27:37;;;;;;;5.05;2.00;;;;;;;;;;4983572;28;20034;-71
2022/02/19 06:30:03;;;;;;;5.40;2.63;;;;;;;;;;4987183;28;20488;-71
2022/02/19 06:32:30;;;;;;;52.45;25.63;;;;;;;;;;4983319;28;20042;-71
2022/02/19 06:34:56;;;;;;;7.00;3.63;;;;;;;;;;4997650;28;20025;-71
2022/02/19 06:37:22;;;;;;;4.15;1.83;;;;;;;;;;4984233;28;20054;-71
2022/02/19 06:39:48;;;;;;;2.55;1.85;;;;;;;;;;4989708;28;20030;-71
2022/02/19 06:42:14;;;;;;;5.18;2.22;;;;;;;;;;4986233;28;20064;-71
2022/02/19 06:44:40;;;;;;;11.82;3.08;;;;;;;;;;4983356;28;20030;-70
2022/02/19 06:47:07;;;;;;;4.68;2.38;;;;;;;;;;4983808;28;20557;-71
2022/02/19 06:49:33;;;;;;;2.47;1.90;;;;;;;;;;4982775;28;20540;-71
2022/02/19 06:51:59;;;;;;;13.02;2.65;;;;;;;;;;4979789;28;20031;-71
2022/02/19 06:54:25;;;;;;;5.15;2.22;;;;;;;;;;4983673;28;20027;-72
2022/02/19 06:56:52;;;;;;;6.30;2.33;;;;;;;;;;4987879;28;20056;-72
2022/02/19 06:59:18;;;;;;;6.22;2.40;;;;;;;;;;4998183;28;20026;-72
2022/02/19 07:01:44;;;;;;;10.02;2.50;;;;;;;;;;4988652;28;20500;-72
2022/02/19 07:04:15;;;;;;;4.25;1.83;;;;;;;;;;4982275;28;20105;-73
2022/02/19 07:06:41;;;;;;;2.80;1.77;;;;;;;;;;4985273;28;20477;-74
2022/02/19 07:09:07;;;;;;;6.53;2.25;;;;;;;;;;4988038;28;20029;-73
2022/02/19 07:11:33;;;;;;;3.00;1.80;;;;;;;;;;5000160;28;20449;-75
2022/02/19 07:13:59;;;;;;;7.03;3.38;;;;;;;;;;4988346;28;20080;-72
2022/02/19 07:16:25;;;;;;;3.58;1.70;;;;;;;;;;4991165;28;20038;-74
2022/02/19 07:18:51;;;;;;;3.78;1.92;;;;;;;;;;4987484;28;20042;-74
2022/02/19 07:21:17;;;;;;;3.63;1.88;;;;;;;;;;4990194;28;20034;-73
2022/02/19 07:23:43;;;;;;;6.18;1.85;;;;;;;;;;5004308;28;20038;-74
2022/02/19 07:26:10;;;;;;;3.92;1.60;;;;;;;;;;4985550;28;20044;-73
2022/02/19 07:28:36;;;;;;;1.88;1.35;;;;;;;;;;4986032;28;20045;-74
2022/02/19 07:31:02;;;;;;;6.93;1.80;;;;;;;;;;4983539;28;20026;-72
2022/02/19 07:33:29;;;;;;;7.63;2.00;;;;;;;;;;4988572;28;20098;-73
2022/02/19 07:35:55;;;;;;;4.22;1.60;;;;;;;;;;4982634;28;20037;-73
2022/02/19 07:38:21;;;;;;;4.97;2.08;;;;;;;;;;4983889;28;20084;-73
2022/02/19 07:40:47;;;;;;;5.13;1.77;;;;;;;;;;4984708;28;20030;-73
2022/02/19 07:43:13;;;;;;;3.83;1.58;;;;;;;;;;4985150;28;20568;-72
2022/02/19 07:45:39;;;;;;;3.70;1.70;;;;;;;;;;4983734;28;20038;-71
2022/02/19 07:48:05;;;;;;;2.67;1.90;;;;;;;;;;4983746;28;20042;-72
2022/02/19 07:58:55;;;;;;;5.22;2.47;;;;;;;;;;4979119;28;20088;-72
2022/02/19 08:01:22;;;;;;;6.55;2.67;;;;;;;;;;4982893;28;20030;-72
2022/02/19 08:03:48;;;;;;;6.25;3.85;;;;;;;;;;4983056;28;20081;-72
2022/02/19 08:06:15;;;;;;;11.93;6.32;;;;;;;;;;4987304;28;20066;-73
2022/02/19 08:08:41;;;;;;;7.05;3.08;;;;;;;;;;4988798;28;20029;-73
2022/02/19 08:11:07;;;;;;;2.70;2.10;;;;;;;;;;4982007;28;20045;-72
2022/02/19 08:13:33;;;;;;;1.60;1.50;;;;;;;;;;4985655;28;20034;-72
2022/02/19 08:15:59;;;;;;;3.00;2.00;;;;;;;;;;4988859;28;20026;-72
2022/02/19 08:18:25;;;;;;;4.20;1.50;;;;;;;;;;4991145;28;20046;-72
2022/02/19 08:20:52;;;;;;;4.68;2.63;;;;;;;;;;4982459;28;20130;-73
2022/02/19 08:23:19;;;;;;;4.00;2.10;;;;;;;;;;4983316;28;20039;-73
2022/02/19 08:25:48;;;;;;;2.88;1.80;;;;;;;;;;4979661;28;20026;-73
2022/02/19 08:28:14;;;;;;;6.97;2.05;;;;;;;;;;4987857;28;20065;-72
2022/02/19 08:30:42;;;;;;;3.05;1.67;;;;;;;;;;4981085;28;20378;-72
2022/02/19 08:33:09;;;;;;;1.75;1.63;;;;;;;;;;4972627;28;20052;-73
2022/02/19 08:35:35;;;;;;;2.35;1.63;;;;;;;;;;4976115;28;20481;-72
2022/02/19 08:38:01;;;;;;;4.07;2.13;;;;;;;;;;4986681;28;20030;-72
2022/02/19 08:40:28;;;;;;;8.48;2.33;;;;;;;;;;4986494;28;20033;-72
2022/02/19 08:42:54;;;;;;;6.20;1.48;;;;;;;;;;4985405;28;20030;-72
2022/02/19 08:45:21;;;;;;;2.08;1.60;;;;;;;;;;4980730;28;20084;-73
2022/02/19 08:47:48;;;;;;;2.75;1.88;;;;;;;;;;4987658;28;20029;-73
2022/02/19 08:50:15;;;;;;;5.38;4.22;;;;;;;;;;4989524;28;20125;-73
2022/02/19 08:52:42;;;;;;;6.15;3.65;;;;;;;;;;4990972;28;20029;-72
2022/02/19 08:55:09;;;;;;;6.13;3.08;;;;;;;;;;4982441;28;20049;-75
2022/02/19 08:57:35;;;;;;;6.00;3.05;;;;;;;;;;4987494;28;20032;-74
2022/02/19 09:00:02;;;;;;;4.70;3.13;;;;;;;;;;4987376;28;20026;-72
2022/02/19 09:02:28;;;;;;;9.20;2.55;;;;;;;;;;4987921;28;20026;-73
2022/02/19 09:04:54;;;;;;;6.80;2.47;;;;;;;;;;4989850;28;20033;-72
2022/02/19 09:07:20;;;;;;;4.47;2.58;;;;;;;;;;4984979;28;20092;-71
2022/02/19 09:09:47;;;;;;;6.18;2.70;;;;;;;;;;4979011;28;20038;-72
2022/02/19 09:12:14;;;;;;;6.43;2.05;;;;;;;;;;4984465;28;20370;-71
2022/02/19 09:14:40;;;;;;;12.00;3.08;;;;;;;;;;4987440;28;20488;-73
2022/02/19 09:17:07;;;;;;;8.15;2.83;;;;;;;;;;4990578;28;20137;-72
2022/02/19 09:19:33;;;;;;;11.20;2.85;;;;;;;;;;4995463;28;20093;-73
2022/02/19 09:22:01;;;;;;;9.27;2.92;;;;;;;;;;4980952;28;20102;-75
2022/02/19 09:24:28;;;;;;;5.05;2.13;;;;;;;;;;4977830;28;20062;-75
2022/02/19 09:26:54;;;;;;;6.15;2.70;;;;;;;;;;4978452;28;20105;-72
2022/02/19 09:29:20;;;;;;;12.00;3.05;;;;;;;;;;4981134;28;20118;-73
2022/02/19 09:31:46;;;;;;;11.05;2.60;;;;;;;;;;4981788;28;20042;-72
2022/02/19 09:34:12;;;;;;;7.82;3.00;;;;;;;;;;4985796;28;20019;-73
2022/02/19 09:36:38;;;;;;;9.80;3.55;;;;;;;;;;4996753;28;20035;-73
2022/02/19 09:39:06;;;;;;;12.90;3.67;;;;;;;;;;4979193;28;20029;-73
2022/02/19 09:41:32;;;;;;;6.75;3.20;;;;;;;;;;4984614;28;20058;-72
2022/02/19 09:44:01;;;;;;;13.80;3.17;;;;;;;;;;4986366;28;20102;-73
2022/02/19 09:46:30;;;;;;;15.13;3.38;;;;;;;;;;4983418;28;20405;-73
2022/02/19 09:48:56;;;;;;;10.50;3.17;;;;;;;;;;4988659;28;20347;-73
2022/02/19 09:51:22;;;;;;;14.10;3.45;;;;;;;;;;4991435;28;20393;-73
2022/02/19 09:53:48;;;;;;;9.25;3.20;;;;;;;;;;4990883;28;20089;-72
2022/02/19 09:56:15;;;;;;;11.52;3.83;;;;;;;;;;4988534;28;20062;-73
2022/02/19 09:58:45;;;;;;;12.20;3.83;;;;;;;;;;4980377;28;20153;-72
2022/02/19 10:01:29;;;;;;;13.05;3.65;;;;;;;;;;4983791;28;20026;-72
2022/02/19 10:03:57;;;;;;;14.95;3.58;;;;;;;;;;4984897;28;20038;-72
2022/02/19 10:06:27;;;;;;;13.05;3.38;;;;;;;;;;4986732;28;20109;-72
2022/02/19 10:09:13;;;;;;;13.25;3.72;;;;;;;;;;4984046;28;20508;-72
2022/02/19 10:11:39;;;;;;;16.48;4.05;;;;;;;;;;4984699;28;20517;-73
2022/02/19 10:14:24;;;;;;;16.42;5.20;;;;;;;;;;4985742;28;20085;-72
2022/02/19 10:17:03;;;;;;;10.07;3.50;;;;;;;;;;4989998;28;20480;-73
2022/02/19 10:19:30;;;;;;;12.13;4.47;;;;;;;;;;4987245;28;20101;-71
2022/02/19 10:22:11;;;;;;;14.32;5.90;;;;;;;;;;4992180;28;20117;-72
2022/02/19 10:24:38;;;;;;;15.35;4.60;;;;;;;;;;4987356;28;20444;-72
2022/02/19 10:27:04;;;;;;;13.75;3.35;;;;;;;;;;4999329;28;20030;-72
2022/02/19 10:29:32;;;;;;;13.13;4.20;;;;;;;;;;4982298;28;20026;-71
2022/02/19 10:31:58;;;;;;;13.23;4.50;;;;;;;;;;4988127;28;20038;-72
2022/02/19 10:34:24;;;;;;;14.18;3.92;;;;;;;;;;4984249;28;20042;-73
2022/02/19 10:36:54;;;;;;;17.25;3.60;;;;;;;;;;4988046;28;20054;-71
2022/02/19 10:39:27;;;;;;;16.02;4.97;;;;;;;;;;4986802;28;20022;-72
2022/02/19 10:41:58;;;;;;;19.15;4.10;;;;;;;;;;4979583;28;20045;-72
2022/02/19 10:44:25;;;;;;;9.52;3.10;;;;;;;;;;4986419;28;20026;-71
2022/02/19 10:46:52;;;;;;;8.25;2.97;;;;;;;;;;4987127;28;20029;-72
2022/02/19 10:49:18;;;;;;;12.93;3.22;;;;;;;;;;4991046;28;20111;-73
2022/02/19 10:51:44;;;;;;;9.20;2.78;;;;;;;;;;4984217;28;20037;-73
2022/02/19 10:54:11;;;;;;;9.55;2.85;;;;;;;;;;4987766;28;20097;-72
2022/02/19 10:56:38;;;;;;;6.00;2.17;;;;;;;;;;4996272;28;20045;-72
2022/02/19 10:59:04;;;;;;;5.78;2.63;;;;;;;;;;4982090;28;20022;-71
2022/02/19 11:01:39;;;;;;;6.00;3.55;;;;;;;;;;4980181;28;20026;-72
2022/02/19 11:04:06;;;;;;;5.60;2.90;;;;;;;;;;4986625;28;20064;-72
2022/02/19 11:06:32;;;;;;;4.05;2.50;;;;;;;;;;4980104;28;20537;-73
2022/02/19 11:08:58;;;;;;;3.08;2.40;;;;;;;;;;4980174;28;20030;-72
2022/02/19 11:11:25;;;;;;;3.78;2.33;;;;;;;;;;4985403;28;20682;-72
2022/02/19 11:13:56;;;;;;;3.85;3.22;;;;;;;;;;4991023;28;20032;-72
2022/02/19 11:16:23;;;;;;;6.03;2.45;;;;;;;;;;4989828;28;20022;-72
2022/02/19 11:18:49;;;;;;;4.10;2.65;;;;;;;;;;4992762;28;20038;-72
2022/02/19 11:21:16;;;;;;;3.20;2.13;;;;;;;;;;4988009;28;20036;-72
2022/02/19 11:23:46;;;;;;;2.70;2.30;;;;;;;;;;4986405;28;20039;-72
2022/02/19 11:26:12;;;;;;;2.60;2.13;;;;;;;;;;4986755;28;20030;-73
2022/02/19 11:28:39;;;;;;;3.35;1.95;;;;;;;;;;4991284;28;20117;-72
2022/02/19 11:31:07;;;;;;;2.30;2.00;;;;;;;;;;4981315;28;20035;-73
2022/02/19 11:33:33;;;;;;;2.28;1.90;;;;;;;;;;4985211;28;20030;-71
2022/02/19 11:36:00;;;;;;;3.15;1.92;;;;;;;;;;4992857;28;20073;-71
2022/02/19 11:38:30;;;;;;;2.28;2.08;;;;;;;;;;4989050;28;20049;-72
2022/02/19 11:41:00;;;;;;;3.78;1.90;;;;;;;;;;4995874;28;20052;-73
2022/02/19 11:43:33;;;;;;;1.90;1.70;;;;;;;;;;4985727;28;20420;-73
2022/02/19 11:46:02;;;;;;;2.47;2.00;;;;;;;;;;4984243;28;20521;-73
2022/02/19 11:48:30;;;;;;;2.47;2.20;;;;;;;;;;4988724;28;20038;-73
2022/02/19 11:51:16;;;;;;;3.20;2.60;;;;;;;;;;4979321;28;20363;-73
2022/02/19 11:53:43;;;;;;;3.25;2.00;;;;;;;;;;4983172;28;20517;-74
2022/02/19 11:56:10;;;;;;;2.30;2.00;;;;;;;;;;4989865;28;20551;-73
2022/02/19 11:58:57;;;;;;;4.10;2.35;;;;;;;;;;4989804;28;20027;-74
2022/02/19 12:01:24;;;;;;;3.13;1.90;;;;;;;;;;5001695;28;20030;-73
2022/02/19 12:04:10;;;;;;;2.22;1.90;;;;;;;;;;4995513;28;20061;-71
2022/02/19 12:06:36;;;;;;;;;;;;;;;;;;5000423;28;20385;-69
2022/02/19 12:09:04;;;;;;;2.60;2.10;;;;;;;;;;4984254;28;19917;-72
2022/02/19 12:11:30;;;;;;;2.35;2.08;;;;;;;;;;4985175;28;20030;-73
2022/02/19 12:13:57;;;;;;;2.83;2.05;;;;;;;;;;4990651;28;20376;-74
2022/02/19 12:16:39;;;;;;;2.38;1.95;;;;;;;;;;4991484;28;20448;-72
2022/02/19 12:19:07;;;;;;;2.50;2.00;;;;;;;;;;4986588;28;20560;-73
2022/02/19 12:21:43;;;;;;;2.67;2.13;;;;;;;;;;4982861;28;20065;-73
2022/02/19 12:24:19;;;;;;;3.97;2.17;;;;;;;;;;4987311;28;20029;-72
2022/02/19 12:27:05;;;;;;;4.63;3.17;;;;;;;;;;4992151;28;20026;-72
2022/02/19 12:29:35;;;;;;;7.90;4.05;;;;;;;;;;4986656;28;20358;-73
2022/02/19 12:32:01;;;;;;;6.20;4.63;;;;;;;;;;4981183;28;20551;-69
2022/02/19 12:34:29;;;;;;;5.55;4.45;;;;;;;;;;4986997;28;20053;-73
2022/02/19 12:36:55;;;;;;;4.03;2.80;;;;;;;;;;5000347;28;20027;-73
2022/02/19 12:39:24;;;;;;;3.40;2.55;;;;;;;;;;4987076;28;20022;-73
2022/02/19 12:41:56;;;;;;;3.42;2.53;;;;;;;;;;4985066;28;20038;-73
2022/02/19 12:44:23;;;;;;;3.00;2.55;;;;;;;;;;4983601;28;20030;-73
2022/02/19 12:46:52;;;;;;;3.83;2.70;;;;;;;;;;4988184;28;20032;-72
2022/02/19 12:49:19;;;;;;;2.63;2.42;;;;;;;;;;4999610;28;20073;-73
2022/02/19 12:51:52;;;;;;;1.88;1.73;;;;;;;;;;4987835;28;20026;-71
2022/02/19 12:54:32;;;;;;;2.03;1.70;;;;;;;;;;4978649;28;20098;-72
2022/02/19 12:56:59;;;;;;;2.00;1.80;;;;;;;;;;4982169;28;20032;-74
2022/02/19 12:59:29;;;;;;;2.95;2.22;;;;;;;;;;4980336;28;20031;-73
2022/02/19 13:01:56;;;;;;;2.45;1.95;;;;;;;;;;4982279;28;20523;-73
2022/02/19 13:04:48;;;;;;;2.35;2.15;;;;;;;;;;4996206;28;20129;-74
2022/02/19 13:07:22;;;;;;;2.50;2.08;;;;;;;;;;4982623;28;20049;-73
2022/02/19 13:09:52;;;;;;;3.63;2.55;;;;;;;;;;4982561;28;20117;-74
2022/02/19 13:12:24;;;;;;;2.67;2.20;;;;;;;;;;4982892;28;20034;-73
2022/02/19 13:14:50;;;;;;;3.40;2.53;;;;;;;;;;4982237;28;20031;-72
2022/02/19 13:17:17;;;;;;;4.22;2.88;;;;;;;;;;4983912;28;20087;-73
2022/02/19 13:19:43;;;;;;;3.13;2.53;;;;;;;;;;4986342;28;20037;-73
2022/02/19 13:22:11;;;;;;;3.25;2.10;;;;;;;;;;4987306;28;20528;-73
2022/02/19 13:24:41;;;;;;;21.02;8.85;;;;;;;;;;4999758;28;20546;-73
2022/02/19 13:27:17;;;;;;;12.35;7.10;;;;;;;;;;4986980;28;20093;-74
2022/02/19 13:29:53;;;;;;;2.80;2.50;;;;;;;;;;4985290;28;20149;-73
2022/02/19 13:32:36;;;;;;;3.35;2.50;;;;;;;;;;4987600;28;20034;-73
2022/02/19 13:35:04;;;;;;;3.05;2.75;;;;;;;;;;4985050;28;20537;-74
2022/02/19 13:37:32;;;;;;;4.35;3.95;;;;;;;;;;4985882;28;20029;-74
2022/02/19 13:40:08;;;;;;;7.68;5.05;;;;;;;;;;4985149;28;20509;-73
2022/02/19 13:42:45;;;;;;;3.63;3.25;;;;;;;;;;4986711;28;20030;-74
2022/02/19 13:45:24;;;;;;;9.43;5.82;;;;;;;;;;4987246;28;20034;-74
2022/02/19 13:47:51;;;;;;;7.00;4.70;;;;;;;;;;5005485;28;20428;-73
2022/02/19 13:50:22;;;;;;;5.25;4.60;;;;;;;;;;4988987;28;20180;-75
2022/02/19 13:52:48;;;;;;;4.68;3.80;;;;;;;;;;4983838;28;21518;-74
2022/02/19 13:55:15;;;;;;;5.18;4.40;;;;;;;;;;4984317;28;20177;-74
2022/02/19 13:57:50;;;;;;;10.00;7.43;;;;;;;;;;4986847;28;20022;-75
2022/02/19 14:00:16;;;;;;;9.05;7.22;;;;;;;;;;4990058;28;20057;-74
2022/02/19 14:02:43;;;;;;;11.05;7.07;;;;;;;;;;4994443;28;20298;-74
2022/02/19 14:05:11;;;;;;;7.15;5.20;;;;;;;;;;4985617;28;20140;-73
2022/02/19 14:08:12;;;;;;;5.75;3.33;;;;;;;;;;4985432;28;20026;-74
2022/02/19 14:10:52;;;;;;;22.95;15.70;;;;;;;;;;4992915;28;20420;-73
2022/02/19 14:13:18;;;;;;;23.33;16.13;;;;;;;;;;4990518;28;20030;-73
2022/02/19 14:15:46;;;;;;;7.60;5.63;;;;;;;;;;4985787;28;20034;-73
2022/02/19 14:18:13;;;;;;;11.57;8.90;;;;;;;;;;4984282;28;20449;-74
2022/02/19 14:20:40;;;;;;;20.83;14.15;;;;;;;;;;4986606;28;20034;-74
2022/02/19 14:23:10;;;;;;;35.20;23.88;;;;;;;;;;4986490;28;20034;-73
2022/02/19 14:25:39;;;;;;;27.00;18.00;;;;;;;;;;4986979;28;20034;-72
2022/02/19 14:28:08;;;;;;;15.20;11.52;;;;;;;;;;4990600;28;20500;-73
2022/02/19 14:30:36;;;;;;;11.88;7.95;;;;;;;;;;4984848;28;20046;-73
2022/02/19 14:33:03;;;;;;;11.15;7.22;;;;;;;;;;4984126;28;20030;-73
2022/02/19 14:35:29;;;;;;;10.65;8.82;;;;;;;;;;4986557;28;20027;-73
2022/02/19 14:37:56;;;;;;;9.52;6.45;;;;;;;;;;4986301;28;20496;-72
2022/02/19 14:40:22;;;;;;;7.38;4.82;;;;;;;;;;4984524;28;20036;-74
2022/02/19 14:42:50;;;;;;;3.30;2.88;;;;;;;;;;4983467;28;20038;-71
2022/02/19 14:45:16;;;;;;;5.72;4.68;;;;;;;;;;4984215;28;20587;-72
2022/02/19 14:47:43;;;;;;;4.00;3.60;;;;;;;;;;4984888;28;20030;-73
2022/02/19 14:50:09;;;;;;;5.50;4.55;;;;;;;;;;4986484;28;20038;-73
2022/02/19 14:52:36;;;;;;;4.80;3.00;;;;;;;;;;4983092;28;20274;-74